createdAt,value
2018-03-23T00:02:14.426Z,17.40
2018-03-23T00:04:44.176Z,17.40
2018-03-23T00:07:12.521Z,17.40
2018-03-23T00:09:41.518Z,17.40
2018-03-23T00:12:10.621Z,17.40
2018-03-23T00:14:39.104Z,17.40
2018-03-23T00:17:08.012Z,17.40
2018-03-23T00:19:37.418Z,17.40
2018-03-23T00:22:05.787Z,17.40
2018-03-23T00:24:35.595Z,17.40
2018-03-23T00:27:04.454Z,17.30
2018-03-23T00:29:33.295Z,17.40
2018-03-23T00:32:02.751Z,17.30
2018-03-23T00:34:31.193Z,17.30
2018-03-23T00:37:01.659Z,17.40
2018-03-23T00:39:30.645Z,17.30
2018-03-23T00:41:58.342Z,17.40
2018-03-23T00:44:25.949Z,17.40
2018-03-23T00:46:55.599Z,17.30
2018-03-23T00:49:23.999Z,17.30
2018-03-23T00:51:52.955Z,17.30
2018-03-23T00:54:20.629Z,17.30
2018-03-23T00:56:51.508Z,17.30
2018-03-23T00:59:20.203Z,17.30
2018-03-23T01:01:48.629Z,17.30
2018-03-23T01:04:19.053Z,17.30
2018-03-23T01:06:47.509Z,17.30
2018-03-23T01:09:15.092Z,17.30
2018-03-23T01:11:44.297Z,17.30
2018-03-23T01:14:13.847Z,17.30
2018-03-23T01:16:42.675Z,17.30
2018-03-23T01:19:10.320Z,17.30
2018-03-23T01:21:39.010Z,17.30
2018-03-23T01:24:06.671Z,17.30
2018-03-23T01:26:34.267Z,17.30
2018-03-23T01:29:01.861Z,17.30
2018-03-23T01:31:30.223Z,17.30
2018-03-23T01:33:58.587Z,17.30
2018-03-23T01:36:27.131Z,17.30
2018-03-23T01:38:54.742Z,17.20
2018-03-23T01:41:23.132Z,17.30
2018-03-23T01:43:51.515Z,17.30
2018-03-23T01:46:19.381Z,17.30
2018-03-23T01:48:46.996Z,17.30
2018-03-23T01:51:14.711Z,17.30
2018-03-23T01:53:45.273Z,17.30
2018-03-23T01:56:12.962Z,17.30
2018-03-23T01:58:40.564Z,17.30
2018-03-23T02:01:08.182Z,17.30
2018-03-23T02:03:35.807Z,17.20
2018-03-23T02:06:03.486Z,17.20
2018-03-23T02:08:31.154Z,17.30
2018-03-23T02:10:58.791Z,17.20
2018-03-23T02:13:26.428Z,17.30
2018-03-23T02:15:54.051Z,17.30
2018-03-23T02:18:22.444Z,17.20
2018-03-23T02:20:50.041Z,17.20
2018-03-23T02:23:17.731Z,17.20
2018-03-23T02:25:45.791Z,17.20
2018-03-23T02:28:13.451Z,17.20
2018-03-23T02:30:42.541Z,17.20
2018-03-23T02:33:11.720Z,17.20
2018-03-23T02:35:39.596Z,17.20
2018-03-23T02:38:07.239Z,17.20
2018-03-23T02:40:35.414Z,17.20
2018-03-23T02:43:03.060Z,17.20
2018-03-23T02:45:30.644Z,17.20
2018-03-23T02:47:58.232Z,17.20
2018-03-23T02:50:26.634Z,17.20
2018-03-23T02:52:54.277Z,17.20
2018-03-23T02:55:22.701Z,17.20
2018-03-23T02:57:50.312Z,17.20
2018-03-23T03:00:18.839Z,17.20
2018-03-23T03:02:46.556Z,17.20
2018-03-23T03:05:15.019Z,17.20
2018-03-23T03:07:42.709Z,17.20
2018-03-23T03:10:10.307Z,17.20
2018-03-23T03:12:37.891Z,17.20
2018-03-23T03:15:05.504Z,17.20
2018-03-23T03:17:33.091Z,17.20
2018-03-23T03:20:00.729Z,17.20
2018-03-23T03:22:28.296Z,17.20
2018-03-23T03:24:55.908Z,17.20
2018-03-23T03:27:24.258Z,17.20
2018-03-23T03:29:51.871Z,17.20
2018-03-23T03:32:19.500Z,17.20
2018-03-23T03:34:47.102Z,17.20
2018-03-23T03:37:14.696Z,17.20
2018-03-23T03:39:42.366Z,17.20
2018-03-23T03:42:10.037Z,17.20
2018-03-23T03:44:38.660Z,17.20
2018-03-23T03:47:06.265Z,17.10
2018-03-23T03:49:33.884Z,17.20
2018-03-23T03:52:01.487Z,17.20
2018-03-23T03:54:29.255Z,17.20
2018-03-23T03:56:57.638Z,17.20
2018-03-23T03:59:26.028Z,17.10
2018-03-23T04:01:54.483Z,17.20
2018-03-23T04:04:22.874Z,17.20
2018-03-23T04:06:51.306Z,17.20
2018-03-23T04:09:18.895Z,17.10
2018-03-23T04:11:46.488Z,17.20
2018-03-23T04:14:14.095Z,17.20
2018-03-23T04:16:41.684Z,17.20
2018-03-23T04:19:10.183Z,17.20
2018-03-23T04:21:37.880Z,17.10
2018-03-23T04:24:05.564Z,17.20
2018-03-23T04:26:33.957Z,17.20
2018-03-23T04:29:02.339Z,17.20
2018-03-23T04:31:30.744Z,17.20
2018-03-23T04:33:58.399Z,17.10
2018-03-23T04:36:25.967Z,17.20
2018-03-23T04:38:53.672Z,17.10
2018-03-23T04:41:22.298Z,17.10
2018-03-23T04:43:49.892Z,17.10
2018-03-23T04:46:17.521Z,17.10
2018-03-23T04:48:45.132Z,17.20
2018-03-23T04:51:12.709Z,17.10
2018-03-23T04:53:41.099Z,17.10
2018-03-23T04:56:09.479Z,17.10
2018-03-23T04:58:38.982Z,17.10
2018-03-23T05:01:07.342Z,17.10
2018-03-23T05:03:35.011Z,17.10
2018-03-23T05:06:04.438Z,17.10
2018-03-23T05:08:32.032Z,17.10
2018-03-23T05:10:59.643Z,17.10
2018-03-23T05:13:27.258Z,17.10
2018-03-23T05:15:54.908Z,17.10
2018-03-23T05:18:22.507Z,17.10
2018-03-23T05:20:50.907Z,17.10
2018-03-23T05:23:18.510Z,17.10
2018-03-23T05:25:46.105Z,17.10
2018-03-23T05:28:14.533Z,17.10
2018-03-23T05:30:42.167Z,17.10
2018-03-23T05:33:09.777Z,17.10
2018-03-23T05:35:37.406Z,17.10
2018-03-23T05:38:05.013Z,17.10
2018-03-23T05:40:33.430Z,17.10
2018-03-23T05:43:01.047Z,17.10
2018-03-23T05:45:29.433Z,17.10
2018-03-23T05:47:57.803Z,17.10
2018-03-23T05:50:26.169Z,17.10
2018-03-23T05:52:53.867Z,17.10
2018-03-23T05:55:21.505Z,17.10
2018-03-23T05:57:49.888Z,17.10
2018-03-23T06:00:18.295Z,17.10
2018-03-23T06:02:46.045Z,17.10
2018-03-23T06:05:13.627Z,17.10
2018-03-23T06:07:41.227Z,17.10
2018-03-23T06:10:09.695Z,17.10
2018-03-23T06:12:37.358Z,17.10
2018-03-23T06:15:05.727Z,17.10
2018-03-23T06:17:34.230Z,17.10
2018-03-23T06:20:02.558Z,17.10
2018-03-23T06:22:30.132Z,17.00
2018-03-23T06:24:57.775Z,17.10
2018-03-23T06:27:25.421Z,17.10
2018-03-23T06:29:53.041Z,17.10
2018-03-23T06:32:21.428Z,17.10
2018-03-23T06:34:49.878Z,17.10
2018-03-23T06:37:17.544Z,17.10
2018-03-23T06:39:45.163Z,17.10
2018-03-23T06:42:12.828Z,17.10
2018-03-23T06:44:40.571Z,17.00
2018-03-23T06:47:08.184Z,17.00
2018-03-23T06:49:36.564Z,17.10
2018-03-23T06:52:04.192Z,17.00
2018-03-23T06:54:31.845Z,17.00
2018-03-23T06:56:59.519Z,17.00
2018-03-23T06:59:27.179Z,17.00
2018-03-23T07:01:54.872Z,17.00
2018-03-23T07:04:23.625Z,17.00
2018-03-23T07:06:51.328Z,17.00
2018-03-23T07:09:19.713Z,17.00
2018-03-23T07:11:48.054Z,17.10
2018-03-23T07:14:15.673Z,17.10
2018-03-23T07:16:43.410Z,17.10
2018-03-23T07:19:12.305Z,17.20
2018-03-23T07:21:39.979Z,17.20
2018-03-23T07:24:08.263Z,17.30
2018-03-23T07:26:36.528Z,17.30
2018-03-23T07:29:04.191Z,17.40
2018-03-23T07:31:32.831Z,17.50
2018-03-23T07:34:00.458Z,17.60
2018-03-23T07:36:28.932Z,17.60
2018-03-23T07:38:56.624Z,17.70
2018-03-23T07:41:24.995Z,17.60
2018-03-23T07:43:52.680Z,17.70
2018-03-23T07:46:21.677Z,17.70
2018-03-23T07:48:50.065Z,17.80
2018-03-23T07:51:17.704Z,17.70
2018-03-23T07:53:46.208Z,17.70
2018-03-23T07:56:13.811Z,17.70
2018-03-23T07:58:42.088Z,17.80
2018-03-23T08:01:09.713Z,17.80
2018-03-23T08:03:38.304Z,17.70
2018-03-23T08:06:05.962Z,17.70
2018-03-23T08:08:33.655Z,17.70
2018-03-23T08:11:01.343Z,17.70
2018-03-23T08:13:29.787Z,17.70
2018-03-23T08:15:57.388Z,17.70
2018-03-23T08:18:25.065Z,17.70
2018-03-23T08:20:52.724Z,17.70
2018-03-23T08:23:20.342Z,17.70
2018-03-23T08:25:48.420Z,17.70
2018-03-23T08:28:16.027Z,17.70
2018-03-23T08:30:43.603Z,17.70
2018-03-23T08:33:11.189Z,17.60
2018-03-23T08:35:39.946Z,17.70
2018-03-23T08:38:07.584Z,17.70
2018-03-23T08:40:35.857Z,17.60
2018-03-23T08:43:03.540Z,17.60
2018-03-23T08:45:31.252Z,17.70
2018-03-23T08:47:59.675Z,17.60
2018-03-23T08:50:27.351Z,17.60
2018-03-23T08:52:54.952Z,17.60
2018-03-23T08:55:23.343Z,17.60
2018-03-23T08:57:50.992Z,17.60
2018-03-23T09:00:19.379Z,17.60
2018-03-23T09:02:47.081Z,17.60
2018-03-23T09:05:14.828Z,17.60
2018-03-23T09:07:42.402Z,17.60
2018-03-23T09:10:10.061Z,17.60
2018-03-23T09:12:37.693Z,17.60
2018-03-23T09:15:05.329Z,17.70
2018-03-23T09:17:32.937Z,17.60
2018-03-23T09:20:00.633Z,17.60
2018-03-23T09:22:29.016Z,17.70
2018-03-23T09:24:56.622Z,17.60
2018-03-23T09:27:24.804Z,17.60
2018-03-23T09:29:52.405Z,17.70
2018-03-23T09:32:21.616Z,17.70
2018-03-23T09:34:50.026Z,17.60
2018-03-23T09:37:17.739Z,17.70
2018-03-23T09:39:46.214Z,17.70
2018-03-23T09:42:15.361Z,17.70
2018-03-23T09:44:42.985Z,17.60
2018-03-23T09:47:10.575Z,17.70
2018-03-23T09:49:38.586Z,17.70
2018-03-23T09:52:06.206Z,17.70
2018-03-23T09:54:33.791Z,17.70
2018-03-23T09:57:02.131Z,17.70
2018-03-23T09:59:29.836Z,17.70
2018-03-23T10:01:58.278Z,17.70
2018-03-23T10:04:25.884Z,17.70
2018-03-23T10:06:54.234Z,17.70
2018-03-23T10:09:21.867Z,17.70
2018-03-23T10:11:49.467Z,17.70
2018-03-23T10:14:17.138Z,17.70
2018-03-23T10:16:45.537Z,17.70
2018-03-23T10:19:13.224Z,17.70
2018-03-23T10:21:40.914Z,17.70
2018-03-23T10:24:08.608Z,17.70
2018-03-23T10:26:37.065Z,17.70
2018-03-23T10:29:04.850Z,17.70
2018-03-23T10:31:32.411Z,17.70
2018-03-23T10:34:00.796Z,17.70
2018-03-23T10:36:28.962Z,17.70
2018-03-23T10:38:57.414Z,17.70
2018-03-23T10:41:26.034Z,17.70
2018-03-23T10:43:53.660Z,17.70
2018-03-23T10:46:21.301Z,17.70
2018-03-23T10:48:48.984Z,17.70
2018-03-23T10:51:16.657Z,17.70
2018-03-23T10:53:45.011Z,17.80
2018-03-23T10:56:12.634Z,17.70
2018-03-23T10:58:40.221Z,17.70
2018-03-23T11:01:13.587Z,17.70
2018-03-23T11:03:41.193Z,17.70
2018-03-23T11:06:09.639Z,17.70
2018-03-23T11:08:38.925Z,17.70
2018-03-23T11:11:06.527Z,17.70
2018-03-23T11:13:35.066Z,17.70
2018-03-23T11:16:02.668Z,17.70
2018-03-23T11:18:31.060Z,17.70
2018-03-23T11:20:59.530Z,17.70
2018-03-23T11:23:27.937Z,17.80
2018-03-23T11:25:55.521Z,17.70
2018-03-23T11:28:23.238Z,17.70
2018-03-23T11:30:51.615Z,17.70
2018-03-23T11:33:19.973Z,17.80
2018-03-23T11:35:48.317Z,17.70
2018-03-23T11:38:15.947Z,17.70
2018-03-23T11:42:58.283Z,17.80
2018-03-23T11:45:25.881Z,17.70
2018-03-23T11:47:54.767Z,17.80
2018-03-23T11:50:23.112Z,17.70
2018-03-23T11:54:25.235Z,17.70
2018-03-23T11:56:53.615Z,17.70
2018-03-23T11:59:22.098Z,17.80
2018-03-23T12:01:50.896Z,17.80
2018-03-23T12:04:18.543Z,17.70
2018-03-23T12:06:46.231Z,17.80
2018-03-23T12:09:13.921Z,17.80
2018-03-23T12:11:41.507Z,17.70
2018-03-23T12:14:09.096Z,17.80
2018-03-23T12:16:36.752Z,17.70
2018-03-23T12:19:04.363Z,17.80
2018-03-23T12:21:32.071Z,17.80
2018-03-23T12:23:59.750Z,17.70
2018-03-23T12:26:27.414Z,17.80
2018-03-23T12:28:55.040Z,17.70
2018-03-23T12:31:22.653Z,17.80
2018-03-23T12:33:50.260Z,17.70
2018-03-23T12:36:18.631Z,17.80
2018-03-23T12:38:47.029Z,17.80
2018-03-23T12:41:14.656Z,17.70
2018-03-23T12:43:43.090Z,17.80
2018-03-23T12:46:10.692Z,17.70
2018-03-23T12:48:38.271Z,17.70
2018-03-23T12:51:06.277Z,17.80
2018-03-23T12:53:34.134Z,17.80
2018-03-23T12:56:02.316Z,17.70
2018-03-23T12:58:29.942Z,17.70
2018-03-23T13:00:57.577Z,17.70
2018-03-23T13:03:25.927Z,17.70
2018-03-23T13:05:53.872Z,17.70
2018-03-23T13:08:21.467Z,17.80
2018-03-23T13:10:50.593Z,17.70
2018-03-23T13:13:18.487Z,17.70
2018-03-23T13:15:46.353Z,17.80
2018-03-23T13:18:14.221Z,17.80
2018-03-23T13:20:42.807Z,17.80
2018-03-23T13:23:10.434Z,17.80
2018-03-23T13:25:38.097Z,17.80
2018-03-23T13:28:05.751Z,17.80
2018-03-23T13:30:33.413Z,17.80
2018-03-23T13:33:00.984Z,17.80
2018-03-23T13:35:28.591Z,17.80
2018-03-23T13:37:56.174Z,17.80
2018-03-23T13:40:24.547Z,17.80
2018-03-23T13:42:53.785Z,17.80
2018-03-23T13:45:21.406Z,17.70
2018-03-23T13:47:50.260Z,17.80
2018-03-23T13:50:18.172Z,17.70
2018-03-23T13:52:45.713Z,17.80
2018-03-23T13:55:14.093Z,17.80
2018-03-23T13:57:42.476Z,17.80
2018-03-23T14:00:16.585Z,17.80
2018-03-23T14:02:44.208Z,17.80
2018-03-23T14:05:11.819Z,17.80
2018-03-23T14:07:39.499Z,17.80
2018-03-23T14:10:07.161Z,17.80
2018-03-23T14:12:34.760Z,17.80
2018-03-23T14:15:03.344Z,17.80
2018-03-23T14:17:30.928Z,17.80
2018-03-23T14:19:58.560Z,17.80
2018-03-23T14:22:26.132Z,17.80
2018-03-23T14:24:53.802Z,17.80
2018-03-23T14:27:22.147Z,17.80
2018-03-23T14:29:49.766Z,17.80
2018-03-23T14:32:17.368Z,17.80
2018-03-23T14:34:44.946Z,17.80
2018-03-23T14:37:13.312Z,17.80
2018-03-23T14:39:42.393Z,17.80
2018-03-23T14:42:10.882Z,17.80
2018-03-23T14:44:38.618Z,17.80
2018-03-23T14:47:06.276Z,17.80
2018-03-23T14:49:33.877Z,17.80
2018-03-23T14:52:02.318Z,17.80
2018-03-23T14:54:30.032Z,17.80
2018-03-23T14:56:57.688Z,17.80
2018-03-23T14:59:26.031Z,17.80
2018-03-23T15:01:53.614Z,17.80
2018-03-23T15:04:21.999Z,17.80
2018-03-23T15:06:50.504Z,17.80
2018-03-23T15:09:19.189Z,17.80
2018-03-23T15:11:48.085Z,17.80
2018-03-23T15:14:18.883Z,17.80
2018-03-23T15:16:47.279Z,17.80
2018-03-23T15:19:14.895Z,17.80
2018-03-23T15:21:43.352Z,17.80
2018-03-23T15:24:11.072Z,17.80
2018-03-23T15:26:39.370Z,17.80
2018-03-23T15:29:08.572Z,17.80
2018-03-23T15:31:39.425Z,17.80
2018-03-23T15:34:10.745Z,17.80
2018-03-23T15:36:41.549Z,17.80
2018-03-23T15:39:10.002Z,17.80
2018-03-23T15:41:38.242Z,17.80
2018-03-23T15:44:06.016Z,17.80
2018-03-23T15:46:35.446Z,17.80
2018-03-23T15:49:03.187Z,17.80
2018-03-23T15:51:31.764Z,17.80
2018-03-23T15:53:59.376Z,17.80
2018-03-23T15:56:27.068Z,17.80
2018-03-23T15:58:54.709Z,17.80
2018-03-23T16:01:22.385Z,17.80
2018-03-23T16:03:49.991Z,17.80
2018-03-23T16:06:18.430Z,17.80
2018-03-23T16:08:46.064Z,17.80
2018-03-23T16:11:13.841Z,17.80
2018-03-23T16:13:41.460Z,17.80
2018-03-23T16:16:09.304Z,17.80
2018-03-23T16:18:36.990Z,17.80
2018-03-23T16:21:04.651Z,17.80
2018-03-23T16:23:33.024Z,17.80
2018-03-23T16:26:01.395Z,17.80
2018-03-23T16:28:29.768Z,17.80
2018-03-23T16:30:58.199Z,17.80
2018-03-23T16:33:25.813Z,17.80
2018-03-23T16:35:54.238Z,17.80
2018-03-23T16:38:21.831Z,17.80
2018-03-23T16:40:49.446Z,17.90
2018-03-23T16:43:17.013Z,17.80
2018-03-23T16:45:44.665Z,17.80
2018-03-23T16:48:12.320Z,17.80
2018-03-23T16:50:40.564Z,17.90
2018-03-23T16:53:08.938Z,17.80
2018-03-23T16:55:37.446Z,17.80
2018-03-23T16:58:05.117Z,17.80
2018-03-23T17:00:32.882Z,17.80
2018-03-23T17:03:00.516Z,17.90
2018-03-23T17:05:28.118Z,17.90
2018-03-23T17:07:55.773Z,17.90
2018-03-23T17:10:24.337Z,17.90
2018-03-23T17:12:51.992Z,17.80
2018-03-23T17:15:20.282Z,17.80
2018-03-23T17:17:48.119Z,17.90
2018-03-23T17:20:15.729Z,17.90
2018-03-23T17:22:43.312Z,17.80
2018-03-23T17:25:11.698Z,17.80
2018-03-23T17:27:39.955Z,17.80
2018-03-23T17:30:08.337Z,17.90
2018-03-23T17:32:36.824Z,17.80
2018-03-23T17:35:05.983Z,17.80
2018-03-23T17:37:33.708Z,17.80
2018-03-23T17:40:01.322Z,17.80
2018-03-23T17:42:29.000Z,17.80
2018-03-23T17:44:57.504Z,17.80
2018-03-23T17:47:25.148Z,17.80
2018-03-23T17:49:55.514Z,17.80
2018-03-23T17:52:25.374Z,17.80
2018-03-23T17:54:54.408Z,17.80
2018-03-23T17:57:22.041Z,17.80
2018-03-23T17:59:50.684Z,17.80
2018-03-23T18:02:20.094Z,17.80
2018-03-23T18:04:47.818Z,17.80
2018-03-23T18:07:15.449Z,17.80
2018-03-23T18:09:43.110Z,17.70
2018-03-23T18:12:10.718Z,17.70
2018-03-23T18:14:39.320Z,17.80
2018-03-23T18:17:07.792Z,17.70
2018-03-23T18:19:35.336Z,17.70
2018-03-23T18:22:03.037Z,17.80
2018-03-23T18:24:31.397Z,17.80
2018-03-23T18:26:59.761Z,17.80
2018-03-23T18:29:28.125Z,17.80
2018-03-23T18:31:55.819Z,17.80
2018-03-23T18:34:23.417Z,17.80
2018-03-23T18:36:51.021Z,17.90
2018-03-23T18:39:18.661Z,17.80
2018-03-23T18:41:46.324Z,17.80
2018-03-23T18:44:13.997Z,17.90
2018-03-23T18:46:41.611Z,17.80
2018-03-23T18:49:09.283Z,17.90
2018-03-23T18:51:37.254Z,17.80
2018-03-23T18:54:04.964Z,17.80
2018-03-23T18:56:33.324Z,17.90
2018-03-23T18:59:00.922Z,17.80
2018-03-23T19:01:28.727Z,17.90
2018-03-23T19:03:56.340Z,17.90
2018-03-23T19:06:25.364Z,17.90
2018-03-23T19:08:52.993Z,17.90
2018-03-23T19:11:20.640Z,17.90
2018-03-23T19:13:50.432Z,17.90
2018-03-23T19:16:18.796Z,17.90
2018-03-23T19:18:47.899Z,17.90
2018-03-23T19:21:15.482Z,17.90
2018-03-23T19:23:43.184Z,17.90
2018-03-23T19:26:10.831Z,17.90
2018-03-23T19:28:38.820Z,17.90
2018-03-23T19:31:06.415Z,17.90
2018-03-23T19:33:34.024Z,17.90
2018-03-23T19:36:01.596Z,17.90
2018-03-23T19:38:29.217Z,17.90
2018-03-23T19:40:56.850Z,17.90
2018-03-23T19:43:24.473Z,17.90
2018-03-23T19:45:52.127Z,17.90
2018-03-23T19:48:19.794Z,17.90
2018-03-23T19:50:47.508Z,17.90
2018-03-23T19:53:15.148Z,17.90
2018-03-23T19:55:45.817Z,17.90
2018-03-23T19:58:14.108Z,17.90
2018-03-23T20:00:42.921Z,17.90
2018-03-23T20:03:10.763Z,17.80
2018-03-23T20:05:39.630Z,17.90
2018-03-23T20:08:07.302Z,17.90
2018-03-23T20:10:34.893Z,17.90
2018-03-23T20:13:02.489Z,17.90
2018-03-23T20:15:30.932Z,17.90
2018-03-23T20:18:05.700Z,17.90
2018-03-23T20:20:38.873Z,17.90
2018-03-23T20:23:06.488Z,17.90
2018-03-23T20:25:34.625Z,17.90
2018-03-23T20:28:08.146Z,17.80
2018-03-23T20:30:36.459Z,17.90
2018-03-23T20:33:04.099Z,17.80
2018-03-23T20:35:32.682Z,17.90
2018-03-23T20:38:01.777Z,17.90
2018-03-23T20:40:31.923Z,17.90
2018-03-23T20:43:01.831Z,17.80
2018-03-23T20:45:31.132Z,17.90
2018-03-23T20:48:00.697Z,17.90
2018-03-23T20:50:30.303Z,17.90
2018-03-23T20:53:01.030Z,17.90
2018-03-23T20:55:30.006Z,17.90
2018-03-23T20:57:59.084Z,17.90
2018-03-23T21:00:27.802Z,17.90
2018-03-23T21:02:57.629Z,17.90
2018-03-23T21:05:26.012Z,17.80
2018-03-23T21:07:57.131Z,17.90
2018-03-23T21:10:25.610Z,17.90
2018-03-23T21:12:54.602Z,17.90
2018-03-23T21:15:23.936Z,17.90
2018-03-23T21:17:53.910Z,17.90
2018-03-23T21:20:22.757Z,17.90
2018-03-23T21:22:51.279Z,17.90
2018-03-23T21:25:19.760Z,17.90
2018-03-23T21:27:49.261Z,17.80
2018-03-23T21:30:17.764Z,17.90
2018-03-23T21:32:46.706Z,17.90
2018-03-23T21:35:15.327Z,17.90
2018-03-23T21:37:44.710Z,17.90
2018-03-23T21:40:14.498Z,17.90
2018-03-23T21:42:43.887Z,17.90
2018-03-23T21:45:12.102Z,17.90
2018-03-23T21:47:41.144Z,17.90
2018-03-23T21:50:11.894Z,17.90
2018-03-23T21:52:40.400Z,17.90
2018-03-23T21:55:09.662Z,17.90
2018-03-23T21:57:38.497Z,17.90
2018-03-23T22:00:06.985Z,17.90
2018-03-23T22:02:36.456Z,17.90
2018-03-23T22:05:04.185Z,17.90
2018-03-23T22:07:32.609Z,17.90
2018-03-23T22:10:01.352Z,17.90
2018-03-23T22:12:29.385Z,17.90
2018-03-23T22:14:58.838Z,17.90
2018-03-23T22:17:26.947Z,17.90
2018-03-23T22:19:54.556Z,17.90
2018-03-23T22:22:22.950Z,17.90
2018-03-23T22:24:50.769Z,17.90
2018-03-23T22:27:20.079Z,17.90
2018-03-23T22:29:49.173Z,17.90
2018-03-23T22:32:17.694Z,17.90
2018-03-23T22:34:45.367Z,17.90
2018-03-23T22:37:13.793Z,17.90
2018-03-23T22:39:43.973Z,17.90
2018-03-23T22:42:13.365Z,17.90
2018-03-23T22:44:43.196Z,17.90
2018-03-23T22:47:11.000Z,17.90
2018-03-23T22:49:39.943Z,17.90
2018-03-23T22:52:07.528Z,17.80
2018-03-23T22:54:35.260Z,17.90
2018-03-23T22:57:02.938Z,17.80
2018-03-23T22:59:30.778Z,17.80
2018-03-23T23:01:58.521Z,17.80
2018-03-23T23:04:26.102Z,17.90
2018-03-23T23:06:53.696Z,17.80
2018-03-23T23:09:21.268Z,17.80
2018-03-23T23:11:49.656Z,17.80
2018-03-23T23:14:18.056Z,17.80
2018-03-23T23:16:45.829Z,17.70
2018-03-23T23:19:13.425Z,17.80
2018-03-23T23:21:41.193Z,17.80
2018-03-23T23:24:08.822Z,17.80
2018-03-23T23:26:36.478Z,17.70
2018-03-23T23:29:04.102Z,17.70
2018-03-23T23:31:32.548Z,17.70
2018-03-23T23:34:01.080Z,17.70
2018-03-23T23:36:28.690Z,17.70
2018-03-23T23:38:57.381Z,17.70
2018-03-23T23:41:25.748Z,17.70
2018-03-23T23:43:53.580Z,17.70
2018-03-23T23:46:21.237Z,17.70
2018-03-23T23:48:48.900Z,17.70
2018-03-23T23:51:16.889Z,17.70
2018-03-23T23:56:18.846Z,17.70
2018-03-23T23:58:46.801Z,17.60
